createdAt,value
2022-08-17T00:23:35.027Z,59.68
2022-08-17T00:52:19.688Z,59.83
2022-08-17T01:21:02.493Z,64.39
2022-08-17T01:49:18.353Z,60.82
2022-08-17T02:17:19.741Z,71.04
2022-08-17T02:46:16.716Z,67.19
2022-08-17T03:15:18.809Z,60.56
2022-08-17T03:44:14.873Z,63.2
2022-08-17T04:12:46.586Z,62.91
2022-08-17T04:41:27.121Z,62.65
2022-08-17T05:10:11.027Z,63.7
2022-08-17T05:38:34.693Z,72.62
2022-08-17T06:07:22.675Z,74.25
2022-08-17T06:36:10.132Z,78.85
2022-08-17T07:04:34.304Z,77.72
2022-08-17T07:33:44.211Z,79.18
2022-08-17T08:02:38.755Z,76.45
2022-08-17T08:31:23.860Z,85.75
2022-08-17T09:00:25.981Z,90.43
2022-08-17T09:29:29.786Z,88.19
2022-08-17T09:58:13.059Z,85.03
2022-08-17T10:26:55.524Z,84.92
2022-08-17T10:55:22.316Z,71.7
2022-08-17T11:24:14.532Z,67.13
2022-08-17T11:53:21.578Z,56.58
2022-08-17T12:22:37.734Z,47.32
2022-08-17T12:51:58.080Z,42.7
2022-08-17T13:20:57.425Z,45.09
2022-08-17T13:50:02.018Z,43.71
2022-08-17T14:18:55.976Z,43.1
2022-08-17T14:46:43.275Z,43.42
2022-08-17T15:15:06.714Z,40.48
2022-08-17T15:43:28.520Z,38.58
2022-08-17T16:11:56.232Z,39.56
2022-08-17T16:40:05.394Z,41.99
2022-08-17T17:08:16.265Z,45.7
2022-08-17T17:36:42.380Z,48.26
2022-08-17T18:04:59.137Z,55.75
2022-08-17T18:33:23.369Z,58.15
2022-08-17T19:01:41.596Z,59.17
2022-08-17T19:29:55.416Z,56.85
2022-08-17T19:58:10.593Z,53.7
2022-08-17T20:26:24.274Z,54.56
2022-08-17T20:54:36.253Z,57.39
2022-08-17T21:22:56.013Z,62.35
2022-08-17T21:50:56.601Z,74.24
2022-08-17T22:19:19.976Z,73.09
2022-08-17T22:47:35.167Z,85.46
2022-08-17T23:15:57.101Z,89.79
2022-08-17T23:44:32.310Z,92.51
